Time;durP1;ratioP1;P1;durP2;ratioP2;P2;SDS_P1;SDS_P2;PMS_P1;PMS_P2;Temp;Humidity;BMP_temperature;BMP_pressure;BME280_temperature;BME280_humidity;BME280_pressure;Samples;Min_cycle;Max_cycle;Signal;HPM_P1;HPM_P2
2021/08/28 00:00:06;;;;;;;6.53;4.35;;;16.40;57.60;;;;;;5088969;28;20073;-82
2021/08/28 00:02:32;;;;;;;6.18;3.75;;;16.40;57.60;;;;;;5086845;28;20078;-85
2021/08/28 00:04:58;;;;;;;4.82;4.28;;;16.40;57.60;;;;;;5107156;28;20083;-85
2021/08/28 00:07:24;;;;;;;4.65;4.05;;;16.40;57.60;;;;;;5108352;28;20027;-85
2021/08/28 00:09:50;;;;;;;6.88;4.20;;;16.40;57.60;;;;;;5090063;28;20024;-83
2021/08/28 00:12:16;;;;;;;6.10;5.03;;;16.40;57.60;;;;;;5084271;28;20040;-82
2021/08/28 00:14:42;;;;;;;4.55;4.13;;;16.40;57.60;;;;;;5086056;28;20390;-85
2021/08/28 00:17:08;;;;;;;5.63;4.00;;;16.40;57.60;;;;;;5086782;28;20024;-85
2021/08/28 00:19:34;;;;;;;7.07;4.60;;;16.30;57.50;;;;;;5099291;28;20034;-83
2021/08/28 00:22:00;;;;;;;7.70;4.13;;;16.30;57.60;;;;;;5106713;28;20031;-84
2021/08/28 00:24:26;;;;;;;4.72;3.55;;;16.30;57.60;;;;;;5089148;28;20028;-83
2021/08/28 00:26:53;;;;;;;7.95;4.13;;;16.30;57.60;;;;;;5084189;28;20032;-82
2021/08/28 00:29:19;;;;;;;4.80;4.30;;;16.30;57.70;;;;;;5085320;28;20043;-83
2021/08/28 00:31:45;;;;;;;6.05;3.63;;;16.30;57.80;;;;;;5083834;28;20070;-80
2021/08/28 00:34:11;;;;;;;5.25;3.55;;;16.30;57.80;;;;;;5098384;28;20518;-84
2021/08/28 00:36:37;;;;;;;4.43;4.03;;;16.30;57.90;;;;;;5106555;28;20394;-84
2021/08/28 00:39:03;;;;;;;6.05;4.07;;;16.20;57.70;;;;;;5096856;28;20028;-80
2021/08/28 00:41:29;;;;;;;4.40;3.60;;;16.20;57.70;;;;;;5068649;28;20113;-82
2021/08/28 00:43:55;;;;;;;4.90;4.18;;;16.20;57.80;;;;;;5086173;28;20558;-82
2021/08/28 00:46:22;;;;;;;4.15;3.60;;;16.20;57.80;;;;;;5087422;28;20503;-81
2021/08/28 00:48:48;;;;;;;5.00;4.35;;;16.20;57.90;;;;;;5084931;28;20102;-83
2021/08/28 00:51:14;;;;;;;4.93;3.90;;;16.20;57.90;;;;;;5085455;28;20035;-83
2021/08/28 00:53:43;;;;;;;5.78;4.68;;;16.20;57.90;;;;;;5085035;28;20580;-83
2021/08/28 00:56:10;;;;;;;5.07;4.57;;;16.20;58.00;;;;;;5068481;28;20024;-82
2021/08/28 00:58:36;;;;;;;4.25;3.75;;;16.20;58.00;;;;;;5085193;28;20115;-83
2021/08/28 01:01:06;;;;;;;5.22;4.20;;;16.20;58.00;;;;;;5084603;28;20196;-82
2021/08/28 01:03:34;;;;;;;5.68;4.00;;;16.20;58.10;;;;;;5093029;28;20047;-82
2021/08/28 01:06:12;;;;;;;5.47;3.78;;;16.20;58.10;;;;;;5088981;28;20418;-82
2021/08/28 01:09:23;;;;;;;5.10;3.78;;;16.20;58.10;;;;;;5087810;28;20410;-82
2021/08/28 01:12:05;;;;;;;4.75;3.70;;;16.10;57.90;;;;;;5069842;28;20450;-82
2021/08/28 01:14:38;;;;;;;4.68;3.95;;;16.20;58.10;;;;;;5085300;28;20031;-81
2021/08/28 01:17:09;;;;;;;5.13;3.80;;;16.10;57.90;;;;;;5086207;28;20040;-81
2021/08/28 01:19:43;;;;;;;4.47;3.88;;;16.20;58.20;;;;;;5081820;28;20046;-81
2021/08/28 01:22:20;;;;;;;4.65;3.67;;;16.20;58.10;;;;;;5089384;28;20482;-81
2021/08/28 01:25:09;;;;;;;5.32;4.00;;;16.10;57.90;;;;;;5105500;28;20530;-82
2021/08/28 01:28:05;;;;;;;5.25;4.30;;;16.20;58.20;;;;;;5105440;28;20062;-82
2021/08/28 01:30:34;;;;;;;6.22;4.03;;;16.20;58.20;;;;;;5065268;28;20162;-81
2021/08/28 01:33:03;;;;;;;4.75;3.95;;;16.20;58.20;;;;;;5057314;28;20055;-82
2021/08/28 01:35:31;;;;;;;5.22;4.40;;;16.20;58.20;;;;;;5066883;28;20033;-81
2021/08/28 01:37:58;;;;;;;4.90;3.45;;;16.10;58.00;;;;;;5066984;28;20557;-82
2021/08/28 01:40:35;;;;;;;6.05;3.97;;;16.20;58.20;;;;;;5071720;28;20562;-81
2021/08/28 01:43:02;;;;;;;5.53;4.13;;;16.20;58.20;;;;;;5075762;28;20139;-84
2021/08/28 01:45:29;;;;;;;5.68;4.15;;;16.10;58.10;;;;;;5049680;28;20032;-82
2021/08/28 01:48:01;;;;;;;5.90;4.18;;;16.10;58.10;;;;;;5063124;28;20596;-83
2021/08/28 01:50:28;;;;;;;5.75;3.85;;;16.10;58.10;;;;;;5072012;28;20407;-81
2021/08/28 01:53:02;;;;;;;4.88;3.92;;;16.20;58.30;;;;;;5069959;28;20033;-83
2021/08/28 01:55:30;;;;;;;4.07;3.67;;;16.20;58.40;;;;;;5082827;28;20024;-83
2021/08/28 01:58:00;;;;;;;5.97;3.92;;;16.10;58.20;;;;;;5077500;28;20044;-84
2021/08/28 02:00:45;;;;;;;5.32;3.75;;;16.20;58.40;;;;;;5095937;28;20023;-84
2021/08/28 02:03:16;;;;;;;8.30;4.35;;;16.20;58.40;;;;;;5096343;28;20059;-85
2021/08/28 02:05:50;;;;;;;5.22;4.07;;;16.20;58.40;;;;;;5099948;28;20082;-84
2021/08/28 02:08:22;;;;;;;5.38;4.03;;;16.20;58.50;;;;;;5098267;28;20127;-86
2021/08/28 02:10:57;;;;;;;5.10;4.33;;;16.20;58.50;;;;;;5097093;28;20044;-86
2021/08/28 02:13:48;;;;;;;5.88;4.18;;;16.20;58.50;;;;;;5100017;28;20568;-84
2021/08/28 02:16:18;;;;;;;6.95;4.00;;;16.20;58.60;;;;;;5086454;28;20048;-85
2021/08/28 02:18:57;;;;;;;5.40;4.13;;;16.20;58.50;;;;;;5111002;28;20125;-84
2021/08/28 02:21:48;;;;;;;4.75;4.28;;;16.20;59.20;;;;;;5081822;28;20066;-84
2021/08/28 02:24:21;;;;;;;5.53;4.43;;;16.20;58.60;;;;;;5102256;28;20051;-85
2021/08/28 02:27:13;;;;;;;5.55;4.53;;;16.20;58.60;;;;;;5103742;28;20024;-85
2021/08/28 02:29:57;;;;;;;9.88;4.45;;;16.20;58.60;;;;;;5084817;28;20028;-85
2021/08/28 02:32:24;;;;;;;6.38;4.38;;;16.10;58.50;;;;;;5102886;28;20123;-85
2021/08/28 02:34:53;;;;;;;6.53;4.40;;;16.10;58.50;;;;;;5103341;28;20111;-84
2021/08/28 02:37:21;;;;;;;5.65;4.10;;;16.10;58.50;;;;;;5086273;28;20118;-82
2021/08/28 02:39:47;;;;;;;5.57;4.03;;;16.10;58.50;;;;;;5085335;28;20191;-86
2021/08/28 02:42:14;;;;;;;5.07;4.30;;;16.10;58.50;;;;;;5101176;28;20482;-82
2021/08/28 02:44:43;;;;;;;5.70;4.40;;;16.10;58.60;;;;;;5102665;28;20036;-84
2021/08/28 02:47:11;;;;;;;4.50;3.92;;;16.10;58.60;;;;;;5102073;28;20024;-83
2021/08/28 02:49:39;;;;;;;5.32;4.55;;;16.00;58.50;;;;;;5103440;28;20215;-84
2021/08/28 02:52:14;;;;;;;7.85;4.57;;;16.00;58.50;;;;;;5099844;28;20035;-83
2021/08/28 02:54:41;;;;;;;5.40;4.45;;;16.00;58.50;;;;;;5100214;28;20024;-83
2021/08/28 02:57:08;;;;;;;4.65;4.15;;;16.00;58.60;;;;;;5099857;28;20038;-81
2021/08/28 02:59:36;;;;;;;7.40;4.72;;;15.90;58.40;;;;;;5082818;28;20026;-81
2021/08/28 03:02:05;;;;;;;4.32;3.92;;;15.90;58.50;;;;;;5085185;28;20065;-82
2021/08/28 03:04:31;;;;;;;6.22;4.60;;;15.90;58.50;;;;;;5085162;28;20104;-84
2021/08/28 03:06:58;;;;;;;6.25;4.40;;;15.90;58.60;;;;;;5101497;28;20025;-83
2021/08/28 03:09:25;;;;;;;7.10;4.93;;;15.90;58.70;;;;;;5100921;28;20418;-83
2021/08/28 03:11:51;;;;;;;5.95;4.55;;;15.80;58.50;;;;;;5101993;28;20062;-85
2021/08/28 03:14:19;;;;;;;6.00;4.22;;;15.80;58.60;;;;;;5100771;28;20048;-85
2021/08/28 03:16:50;;;;;;;5.13;4.55;;;15.70;58.50;;;;;;5100489;28;20038;-85
2021/08/28 03:19:38;;;;;;;8.23;4.90;;;15.80;58.80;;;;;;5100181;28;20028;-84
2021/08/28 03:22:05;;;;;;;6.85;4.65;;;15.70;58.60;;;;;;5100000;28;20491;-82
2021/08/28 03:24:33;;;;;;;5.68;4.75;;;15.60;58.50;;;;;;5099488;28;20024;-81
2021/08/28 03:27:08;;;;;;;6.55;4.85;;;15.60;58.60;;;;;;5098616;28;20104;-82
2021/08/28 03:29:36;;;;;;;9.98;5.15;;;15.60;58.70;;;;;;5100533;28;20433;-83
2021/08/28 03:32:04;;;;;;;7.53;5.03;;;15.60;58.70;;;;;;5082713;28;20032;-82
2021/08/28 03:34:33;;;;;;;6.38;5.38;;;15.50;58.60;;;;;;5081469;28;20127;-83
2021/08/28 03:37:00;;;;;;;7.28;5.30;;;15.50;58.70;;;;;;5099306;28;20048;-82
2021/08/28 03:39:27;;;;;;;10.73;4.95;;;15.50;58.80;;;;;;5099277;28;20035;-82
2021/08/28 03:41:55;;;;;;;7.95;5.00;;;15.40;58.70;;;;;;5082295;28;20032;-81
2021/08/28 03:44:22;;;;;;;7.13;4.80;;;15.40;58.80;;;;;;5099906;28;20039;-82
2021/08/28 03:46:50;;;;;;;5.47;4.78;;;15.40;58.80;;;;;;5100075;28;20036;-81
2021/08/28 03:49:17;;;;;;;7.97;5.82;;;15.30;58.80;;;;;;5101257;28;20035;-82
2021/08/28 03:51:44;;;;;;;7.53;5.55;;;15.30;58.80;;;;;;5082510;28;20032;-80
2021/08/28 03:54:10;;;;;;;6.03;5.18;;;15.30;58.90;;;;;;5083686;28;20059;-81
2021/08/28 03:56:36;;;;;;;6.40;5.25;;;15.30;59.00;;;;;;5098042;28;20035;-81
2021/08/28 03:59:02;;;;;;;6.68;4.90;;;15.30;59.00;;;;;;5082001;28;20081;-82
2021/08/28 04:01:29;;;;;;;6.65;5.63;;;15.20;59.50;;;;;;5098152;28;20088;-82
2021/08/28 04:03:57;;;;;;;9.68;5.95;;;15.20;59.00;;;;;;5098903;28;20040;-82
2021/08/28 04:06:23;;;;;;;8.48;5.68;;;15.20;59.00;;;;;;5100954;28;20387;-80
2021/08/28 04:08:49;;;;;;;8.40;5.72;;;15.20;59.00;;;;;;5102246;28;20028;-83
2021/08/28 04:11:15;;;;;;;7.22;5.90;;;15.20;59.20;;;;;;5089725;28;20088;-81
2021/08/28 04:13:42;;;;;;;9.27;6.05;;;15.10;59.00;;;;;;5081079;28;20542;-81
2021/08/28 04:16:08;;;;;;;8.93;5.95;;;15.10;59.10;;;;;;5078100;28;20106;-87
2021/08/28 04:18:39;;;;;;;8.88;6.35;;;15.10;59.10;;;;;;5078121;28;20024;-84
2021/08/28 04:21:25;;;;;;;9.52;6.38;;;15.10;59.20;;;;;;5092080;28;20581;-84
2021/08/28 04:23:51;;;;;;;7.57;6.38;;;15.00;59.10;;;;;;5096231;28;20048;-78
2021/08/28 04:26:43;;;;;;;7.13;5.78;;;15.00;59.20;;;;;;5096948;28;20035;-83
2021/08/28 04:29:11;;;;;;;8.38;6.85;;;15.00;59.20;;;;;;5096811;28;20387;-82
2021/08/28 04:31:37;;;;;;;8.27;6.03;;;15.00;59.30;;;;;;5077841;28;20024;-80
2021/08/28 04:34:04;;;;;;;9.52;6.93;;;15.00;59.40;;;;;;5079823;28;20127;-80
2021/08/28 04:36:30;;;;;;;11.00;6.30;;;14.90;59.20;;;;;;5093913;28;20056;-83
2021/08/28 04:38:56;;;;;;;8.07;6.40;;;14.90;59.30;;;;;;5096106;28;20032;-82
2021/08/28 04:41:22;;;;;;;8.27;6.32;;;14.90;59.40;;;;;;5079250;28;20030;-82
2021/08/28 04:43:48;;;;;;;8.73;5.97;;;14.90;59.40;;;;;;5080295;28;20039;-81
2021/08/28 04:46:24;;;;;;;7.78;6.80;;;14.90;60.10;;;;;;5078560;28;20024;-80
2021/08/28 04:48:52;;;;;;;9.80;6.32;;;14.80;59.30;;;;;;5087623;28;20487;-82
2021/08/28 04:51:40;;;;;;;9.00;6.20;;;14.80;59.40;;;;;;5072304;28;20040;-82
2021/08/28 04:54:09;;;;;;;7.00;6.15;;;14.80;59.40;;;;;;5072974;28;20404;-82
2021/08/28 04:56:36;;;;;;;11.10;6.70;;;14.80;59.50;;;;;;5071140;28;20024;-82
2021/08/28 04:59:04;;;;;;;7.57;6.78;;;14.80;59.60;;;;;;5087871;28;20177;-80
2021/08/28 05:01:51;;;;;;;8.98;6.57;;;14.70;59.40;;;;;;5072145;28;20102;-80
2021/08/28 05:04:25;;;;;;;13.85;7.45;;;14.70;59.50;;;;;;5086396;28;20110;-83
2021/08/28 05:06:53;;;;;;;9.48;7.22;;;14.70;59.50;;;;;;5073452;28;20162;-82
2021/08/28 05:09:23;;;;;;;9.27;6.63;;;14.70;59.60;;;;;;5096552;28;20039;-82
2021/08/28 05:11:50;;;;;;;8.60;7.50;;;14.70;59.70;;;;;;5097091;28;20043;-84
2021/08/28 05:14:16;;;;;;;7.95;6.80;;;14.70;59.80;;;;;;5096656;28;20611;-82
2021/08/28 05:16:44;;;;;;;10.20;6.43;;;14.70;59.80;;;;;;5084610;28;20032;-84
2021/08/28 05:19:29;;;;;;;10.98;6.30;;;14.70;59.90;;;;;;5097806;28;20061;-83
2021/08/28 05:21:56;;;;;;;9.98;7.55;;;14.60;59.70;;;;;;5098696;28;20463;-84
2021/08/28 05:24:37;;;;;;;10.32;7.35;;;14.60;59.70;;;;;;5086665;28;20029;-81
2021/08/28 05:27:03;;;;;;;8.55;6.43;;;14.60;59.70;;;;;;5079171;28;20024;-82
2021/08/28 05:29:30;;;;;;;10.10;7.03;;;14.60;59.90;;;;;;5103836;28;20110;-81
2021/08/28 05:31:56;;;;;;;10.88;7.10;;;14.60;59.90;;;;;;5106203;28;20028;-80
2021/08/28 05:34:22;;;;;;;11.18;7.03;;;14.60;60.00;;;;;;5083195;28;20032;-82
2021/08/28 05:37:14;;;;;;;9.18;6.97;;;14.60;60.00;;;;;;5087726;28;20073;-81
2021/08/28 05:40:08;;;;;;;9.98;6.60;;;14.60;60.00;;;;;;5092738;28;20200;-80
2021/08/28 05:42:37;;;;;;;9.00;6.85;;;14.60;60.00;;;;;;5091766;28;20051;-79
2021/08/28 05:45:03;;;;;;;13.15;7.30;;;14.60;60.10;;;;;;5074702;28;20028;-80
2021/08/28 05:47:29;;;;;;;8.88;6.85;;;14.60;60.20;;;;;;5098708;28;20028;-82
2021/08/28 05:49:55;;;;;;;8.38;6.63;;;14.60;60.20;;;;;;5111901;28;20023;-80
2021/08/28 05:52:21;;;;;;;10.88;7.70;;;14.60;60.30;;;;;;5118805;28;20028;-82
2021/08/28 05:54:47;;;;;;;13.25;7.60;;;14.60;60.30;;;;;;5082199;28;20554;-81
2021/08/28 05:57:13;;;;;;;10.48;7.78;;;14.60;60.30;;;;;;5101774;28;20074;-82
2021/08/28 05:59:39;;;;;;;12.40;8.48;;;14.60;60.40;;;;;;5088059;28;20028;-83
2021/08/28 06:02:09;;;;;;;15.38;8.82;;;14.60;60.40;;;;;;5072761;28;20043;-81
2021/08/28 06:04:38;;;;;;;13.07;7.93;;;14.60;60.40;;;;;;5098591;28;20123;-79
2021/08/28 06:07:13;;;;;;;12.43;8.10;;;14.60;60.40;;;;;;5094514;28;20107;-81
2021/08/28 06:09:59;;;;;;;20.73;11.70;;;14.60;60.40;;;;;;5094199;28;20039;-82
2021/08/28 06:13:00;;;;;;;20.15;11.82;;;14.60;60.60;;;;;;5015679;28;20113;-82
2021/08/28 06:15:44;;;;;;;20.13;13.60;;;14.70;61.00;;;;;;5082340;28;20048;-80
2021/08/28 06:18:13;;;;;;;23.88;13.60;;;14.70;61.20;;;;;;5080084;28;20479;-88
2021/08/28 06:20:40;;;;;;;23.02;12.07;;;14.70;61.40;;;;;;5075391;28;20119;-80
2021/08/28 06:23:09;;;;;;;24.95;13.73;;;14.70;61.60;;;;;;5091248;28;20032;-81
2021/08/28 06:25:55;;;;;;;22.05;14.38;;;14.80;62.00;;;;;;5086221;28;20284;-80
2021/08/28 06:28:21;;;;;;;22.85;14.05;;;14.80;62.10;;;;;;5092826;28;20497;-81
2021/08/28 06:30:48;;;;;;;21.70;11.95;;;14.80;62.20;;;;;;5088650;28;20039;-82
2021/08/28 06:33:15;;;;;;;23.08;13.40;;;14.80;62.40;;;;;;5087996;28;20115;-80
2021/08/28 06:35:41;;;;;;;20.95;14.90;;;14.90;62.70;;;;;;5055995;28;20502;-79
2021/08/28 06:38:26;;;;;;;24.38;14.63;;;14.90;62.80;;;;;;5090636;27;20032;-79
2021/08/28 06:41:10;;;;;;;27.40;15.02;;;15.00;63.00;;;;;;5078033;28;20035;-80
2021/08/28 06:44:06;;;;;;;22.25;14.60;;;15.00;63.00;;;;;;5007025;28;20045;-82
2021/08/28 06:46:50;;;;;;;22.17;16.30;;;15.10;63.20;;;;;;5079138;28;20483;-79
2021/08/28 06:49:34;;;;;;;24.08;16.00;;;15.20;63.30;;;;;;5106734;28;20031;-81
2021/08/28 06:52:19;;;;;;;25.55;15.68;;;15.30;63.50;;;;;;5109278;28;20028;-84
2021/08/28 06:55:05;;;;;;;25.35;16.08;;;15.40;63.50;;;;;;5110143;28;20032;-80
2021/08/28 06:58:06;;;;;;;30.75;16.73;;;15.40;63.40;;;;;;5045963;28;20032;-81
2021/08/28 07:00:52;;;;;;;26.10;16.60;;;15.50;64.10;;;;;;5103871;28;20043;-80
2021/08/28 07:03:37;;;;;;;21.17;15.85;;;15.60;63.70;;;;;;5088986;28;20039;-80
2021/08/28 07:06:03;;;;;;;30.98;16.73;;;15.60;63.60;;;;;;5088247;28;20082;-80
2021/08/28 07:08:30;;;;;;;30.00;16.92;;;15.60;63.60;;;;;;5098564;28;20028;-81
2021/08/28 07:10:56;;;;;;;24.48;15.77;;;15.70;63.80;;;;;;5108054;28;20027;-80
2021/08/28 07:13:22;;;;;;;24.92;15.20;;;15.70;63.80;;;;;;5096799;28;20054;-79
2021/08/28 07:15:49;;;;;;;22.77;15.43;;;15.70;63.80;;;;;;5087819;28;20032;-81
2021/08/28 07:18:17;;;;;;;23.45;14.75;;;15.70;63.80;;;;;;5088028;28;20028;-79
2021/08/28 07:20:43;;;;;;;27.38;15.70;;;15.80;64.00;;;;;;5071378;28;20067;-83
2021/08/28 07:23:12;;;;;;;24.30;14.85;;;15.80;64.00;;;;;;5080869;28;20498;-79
2021/08/28 07:25:55;;;;;;;22.80;15.48;;;15.80;64.00;;;;;;5108305;28;20031;-80
2021/08/28 07:28:22;;;;;;;29.75;17.20;;;15.80;63.90;;;;;;5107270;28;20027;-81
2021/08/28 07:31:05;;;;;;;23.40;14.35;;;15.90;64.10;;;;;;5076579;28;20028;-80
2021/08/28 07:33:32;;;;;;;27.45;14.82;;;15.90;64.00;;;;;;5084962;28;20089;-81
2021/08/28 07:35:58;;;;;;;24.30;14.05;;;15.90;64.10;;;;;;5086404;28;20039;-81
2021/08/28 07:38:24;;;;;;;26.90;14.88;;;16.00;64.20;;;;;;5088556;28;20044;-85
2021/08/28 07:40:51;;;;;;;27.17;14.52;;;16.00;64.20;;;;;;5089164;28;20043;-84
2021/08/28 07:43:18;;;;;;;27.98;14.77;;;16.00;64.10;;;;;;5087870;28;20043;-83
2021/08/28 07:45:50;;;;;;;25.10;15.45;;;16.10;64.20;;;;;;5074146;28;20034;-89
2021/08/28 07:48:21;;;;;;;24.85;14.75;;;16.10;64.20;;;;;;5098183;28;20081;-86
2021/08/28 07:50:48;;;;;;;23.27;13.82;;;16.10;64.10;;;;;;5108707;28;20031;-90
2021/08/28 07:53:14;;;;;;;26.48;14.43;;;16.10;64.10;;;;;;5081388;28;20114;-86
2021/08/28 07:55:47;;;;;;;21.30;14.45;;;16.10;64.60;;;;;;5088493;28;20060;-80
2021/08/28 07:58:14;;;;;;;24.90;13.55;;;16.10;64.10;;;;;;5094948;28;20066;-78
2021/08/28 08:00:41;;;;;;;22.88;12.15;;;16.10;64.00;;;;;;5108460;28;20019;-78
2021/08/28 08:03:07;;;;;;;16.90;11.70;;;16.20;64.30;;;;;;5087286;28;20044;-82
2021/08/28 08:05:51;;;;;;;18.40;11.88;;;16.20;64.50;;;;;;5076716;28;20024;-83
2021/08/28 08:08:36;;;;;;;16.70;11.95;;;16.30;65.00;;;;;;5099208;28;20238;-86
2021/08/28 08:11:21;;;;;;;19.23;12.35;;;16.40;65.20;;;;;;5098249;28;20072;-80
2021/08/28 08:14:05;;;;;;;17.67;10.60;;;16.50;65.50;;;;;;5105250;28;20028;-81
2021/08/28 08:16:49;;;;;;;13.45;10.27;;;16.60;65.60;;;;;;5066906;28;20410;-81
2021/08/28 08:19:34;;;;;;;20.30;12.13;;;16.80;65.90;;;;;;5111297;28;20059;-81
2021/08/28 08:22:38;;;;;;;16.67;12.35;;;16.90;66.00;;;;;;5104982;28;20048;-81
2021/08/28 08:25:31;;;;;;;17.50;12.07;;;17.00;65.90;;;;;;5063313;28;20035;-82
2021/08/28 08:28:26;;;;;;;16.77;10.98;;;17.10;66.00;;;;;;5096671;28;20180;-80
2021/08/28 08:31:11;;;;;;;15.60;9.90;;;17.30;66.10;;;;;;5102835;28;20495;-79
2021/08/28 08:33:38;;;;;;;20.65;10.73;;;17.40;66.10;;;;;;5086315;28;20064;-80
2021/08/28 08:36:11;;;;;;;14.82;11.10;;;17.50;66.00;;;;;;5073949;28;20040;-80
2021/08/28 08:38:37;;;;;;;15.20;10.60;;;17.60;66.10;;;;;;5099692;28;20490;-79
2021/08/28 08:41:06;;;;;;;19.50;11.75;;;17.60;66.00;;;;;;5110459;28;20032;-80
2021/08/28 08:43:38;;;;;;;18.25;12.02;;;17.60;66.00;;;;;;5093697;28;20212;-80
2021/08/28 08:46:04;;;;;;;16.85;12.32;;;17.70;66.10;;;;;;5106767;28;20020;-79
2021/08/28 08:48:32;;;;;;;20.25;12.00;;;17.70;66.10;;;;;;5106695;28;20331;-81
2021/08/28 08:50:59;;;;;;;17.40;12.88;;;17.80;66.20;;;;;;5110203;28;20502;-79
2021/08/28 08:53:28;;;;;;;18.35;12.82;;;17.80;66.10;;;;;;5080415;28;20039;-80
2021/08/28 08:56:05;;;;;;;19.67;12.52;;;17.90;66.10;;;;;;5089786;28;20053;-82
2021/08/28 08:58:35;;;;;;;16.77;11.73;;;18.00;66.10;;;;;;5098121;28;20032;-83
2021/08/28 09:01:05;;;;;;;21.38;13.85;;;18.10;66.10;;;;;;5087142;28;20028;-85
2021/08/28 09:03:35;;;;;;;18.55;13.38;;;18.10;66.00;;;;;;5086923;28;20032;-88
2021/08/28 09:06:03;;;;;;;22.02;14.45;;;18.30;66.20;;;;;;5087249;28;20425;-84
2021/08/28 09:08:34;;;;;;;19.85;12.95;;;18.40;66.10;;;;;;5097878;28;20371;-84
2021/08/28 09:11:00;;;;;;;14.98;11.82;;;18.50;66.10;;;;;;5097200;28;20375;-82
2021/08/28 09:13:26;;;;;;;17.92;12.35;;;18.60;66.00;;;;;;5100407;28;20038;-85
2021/08/28 09:15:55;;;;;;;19.35;12.60;;;18.80;66.10;;;;;;5107891;28;20035;-83
2021/08/28 09:18:22;;;;;;;17.88;12.30;;;18.90;66.00;;;;;;5093839;28;20032;-80
2021/08/28 09:20:49;;;;;;;19.50;13.15;;;19.00;65.70;;;;;;5059148;28;20034;-79
2021/08/28 09:23:17;;;;;;;19.95;12.27;;;19.10;65.20;;;;;;5085620;28;20040;-80
2021/08/28 09:25:48;;;;;;;16.85;11.98;;;19.10;64.80;;;;;;5085531;28;20502;-80
2021/08/28 09:28:15;;;;;;;20.35;12.88;;;19.10;64.40;;;;;;5092549;28;20417;-80
2021/08/28 09:30:46;;;;;;;13.85;11.75;;;19.10;64.20;;;;;;5105669;28;20416;-80
2021/08/28 09:33:21;;;;;;;19.77;12.13;;;19.10;64.10;;;;;;5085518;28;20065;-80
2021/08/28 09:35:49;;;;;;;23.48;12.23;;;19.20;64.00;;;;;;5105856;28;20073;-79
2021/08/28 09:38:19;;;;;;;20.77;11.77;;;19.20;63.90;;;;;;5105246;28;20028;-79
2021/08/28 09:40:54;;;;;;;17.48;11.43;;;19.10;63.50;;;;;;5107100;28;20277;-79
2021/08/28 09:43:21;;;;;;;13.88;10.68;;;19.10;63.20;;;;;;5105290;28;20044;-80
2021/08/28 09:45:50;;;;;;;16.92;11.55;;;19.10;63.20;;;;;;5105496;28;20494;-80
2021/08/28 09:48:18;;;;;;;16.70;10.98;;;19.10;63.10;;;;;;5104537;28;20028;-80
2021/08/28 09:50:48;;;;;;;16.73;10.30;;;19.10;63.00;;;;;;5106795;28;20034;-79
2021/08/28 09:53:23;;;;;;;12.60;9.50;;;19.10;62.80;;;;;;5103929;28;20146;-80
2021/08/28 09:56:00;;;;;;;19.50;10.07;;;19.10;62.80;;;;;;5104350;28;20027;-79
2021/08/28 09:58:32;;;;;;;17.48;11.02;;;19.10;62.60;;;;;;5104384;28;20031;-80
2021/08/28 10:01:07;;;;;;;18.80;10.90;;;19.20;62.70;;;;;;5086242;28;20031;-80
2021/08/28 10:03:33;;;;;;;17.40;11.23;;;19.20;62.50;;;;;;5085748;28;20043;-80
2021/08/28 10:06:01;;;;;;;15.55;11.20;;;19.30;62.50;;;;;;5085882;28;20399;-83
2021/08/28 10:08:30;;;;;;;16.52;10.52;;;19.30;62.20;;;;;;5094434;28;20715;-84
2021/08/28 10:10:58;;;;;;;13.00;10.35;;;19.40;62.20;;;;;;5108396;28;20093;-89
2021/08/28 10:13:24;;;;;;;17.98;10.88;;;19.40;62.00;;;;;;5109589;28;20069;-89
2021/08/28 10:15:51;;;;;;;19.33;12.43;;;19.30;61.70;;;;;;5092521;28;20036;-85
2021/08/28 10:18:17;;;;;;;15.57;9.98;;;19.30;61.70;;;;;;5106726;28;20051;-84
2021/08/28 10:20:43;;;;;;;13.20;9.93;;;19.20;61.50;;;;;;5090013;28;20038;-83
2021/08/28 10:23:11;;;;;;;16.80;9.57;;;19.20;61.60;;;;;;5090903;28;20286;-87
2021/08/28 10:25:40;;;;;;;14.60;10.10;;;19.20;61.60;;;;;;5068787;28;20028;-88
2021/08/28 10:28:09;;;;;;;13.90;10.68;;;19.20;61.60;;;;;;5078540;28;20035;-90
2021/08/28 10:30:35;;;;;;;14.43;10.75;;;19.20;61.70;;;;;;5108272;28;20023;-89
2021/08/28 10:33:02;;;;;;;12.52;9.40;;;19.20;61.80;;;;;;5087962;28;20039;-86
2021/08/28 10:35:28;;;;;;;14.50;9.65;;;19.20;61.80;;;;;;5072708;28;20035;-87
2021/08/28 10:37:54;;;;;;;12.88;9.38;;;19.20;61.70;;;;;;5091154;28;20035;-87
2021/08/28 10:40:27;;;;;;;14.30;8.82;;;19.20;62.30;;;;;;5092254;28;20032;-88
2021/08/28 10:42:57;;;;;;;12.15;8.55;;;19.20;61.70;;;;;;5082799;28;20063;-85
2021/08/28 10:45:37;;;;;;;16.40;8.90;;;19.20;61.70;;;;;;5113872;28;20487;-85
2021/08/28 10:48:26;;;;;;;16.13;8.48;;;19.20;61.70;;;;;;5083623;28;20042;-86
2021/08/28 10:50:52;;;;;;;11.98;9.15;;;19.20;61.80;;;;;;5109602;28;20069;-85
2021/08/28 10:53:18;;;;;;;12.80;9.43;;;19.10;61.60;;;;;;5110035;28;20027;-80
2021/08/28 10:55:47;;;;;;;13.98;8.60;;;19.20;61.80;;;;;;5109250;28;20035;-81
2021/08/28 10:58:17;;;;;;;13.07;8.90;;;19.20;61.80;;;;;;5111024;28;20031;-85
2021/08/28 11:00:45;;;;;;;14.07;9.23;;;19.30;62.00;;;;;;5099910;28;20048;-87
2021/08/28 11:03:31;;;;;;;15.70;9.15;;;19.40;62.00;;;;;;5069269;28;20043;-83
2021/08/28 11:06:16;;;;;;;17.25;8.98;;;19.40;61.70;;;;;;5110745;28;20028;-86
2021/08/28 11:08:50;;;;;;;14.10;9.25;;;19.50;61.70;;;;;;5074396;28;20064;-84
2021/08/28 11:11:41;;;;;;;14.85;8.82;;;19.60;61.70;;;;;;5077838;28;22021;-83
2021/08/28 11:14:09;;;;;;;12.20;7.50;;;19.70;61.70;;;;;;5071166;28;20094;-77
2021/08/28 11:16:44;;;;;;;12.13;8.10;;;19.80;61.70;;;;;;5080242;28;20063;-78
2021/08/28 11:19:22;;;;;;;12.70;7.38;;;19.80;61.50;;;;;;5100578;28;20565;-80
2021/08/28 11:21:49;;;;;;;15.07;8.30;;;19.80;61.50;;;;;;5109555;28;20032;-85
2021/08/28 11:24:21;;;;;;;13.80;7.95;;;19.90;61.70;;;;;;5090072;28;20046;-79
2021/08/28 11:26:49;;;;;;;11.98;7.65;;;20.00;61.60;;;;;;5087803;28;20036;-88
2021/08/28 11:29:25;;;;;;;10.25;6.70;;;20.00;61.40;;;;;;5103483;28;20475;-87
2021/08/28 11:32:11;;;;;;;9.32;6.53;;;20.10;61.50;;;;;;5101292;28;20035;-85
2021/08/28 11:34:44;;;;;;;11.02;7.10;;;20.10;61.20;;;;;;5067705;28;20457;-86
2021/08/28 11:37:28;;;;;;;11.68;7.38;;;20.10;61.10;;;;;;5068377;28;20510;-79
2021/08/28 11:39:59;;;;;;;11.38;7.20;;;20.20;61.20;;;;;;5068002;28;20113;-83
2021/08/28 11:42:31;;;;;;;13.95;8.05;;;20.20;61.10;;;;;;5069826;28;20033;-80
2021/08/28 11:44:58;;;;;;;8.85;6.85;;;20.20;61.10;;;;;;5087594;28;20039;-80
2021/08/28 11:47:26;;;;;;;10.05;7.13;;;20.20;61.00;;;;;;5087519;28;20598;-80
2021/08/28 11:49:54;;;;;;;14.98;7.47;;;20.30;61.10;;;;;;5108215;28;20038;-81
2021/08/28 11:52:20;;;;;;;10.35;7.35;;;20.30;61.10;;;;;;5103575;28;20466;-80
2021/08/28 11:54:47;;;;;;;11.35;6.72;;;20.30;60.90;;;;;;5079158;28;20056;-82
2021/08/28 11:57:19;;;;;;;10.52;6.70;;;20.40;61.00;;;;;;5071786;28;20032;-81
2021/08/28 11:59:45;;;;;;;13.65;7.57;;;20.40;60.90;;;;;;5095133;28;20027;-80
2021/08/28 12:02:11;;;;;;;14.60;7.93;;;20.40;60.80;;;;;;5086447;28;20416;-82
2021/08/28 12:04:37;;;;;;;16.73;8.00;;;20.50;60.90;;;;;;5087553;28;20452;-81
2021/08/28 12:07:05;;;;;;;14.43;7.68;;;20.50;60.90;;;;;;5082964;28;20064;-81
2021/08/28 12:09:32;;;;;;;11.45;7.40;;;20.50;61.00;;;;;;5078576;28;20363;-81
2021/08/28 12:11:59;;;;;;;13.43;6.78;;;20.60;61.10;;;;;;5063281;28;20079;-81
2021/08/28 12:14:30;;;;;;;12.73;7.15;;;20.70;61.20;;;;;;5083979;28;20116;-82
2021/08/28 12:16:57;;;;;;;9.93;6.55;;;20.80;61.10;;;;;;5069311;28;20024;-79
2021/08/28 12:19:26;;;;;;;14.07;7.65;;;20.80;61.00;;;;;;5103149;28;20037;-82
2021/08/28 12:22:05;;;;;;;9.60;6.90;;;20.80;61.00;;;;;;5107226;28;20027;-83
2021/08/28 12:24:36;;;;;;;17.05;7.90;;;20.80;60.90;;;;;;5069333;28;20040;-85
2021/08/28 12:27:11;;;;;;;11.80;7.90;;;20.90;61.00;;;;;;5086019;28;20031;-81
2021/08/28 12:29:42;;;;;;;11.48;7.50;;;21.00;61.00;;;;;;5095610;28;20375;-82
2021/08/28 12:32:11;;;;;;;12.73;8.63;;;21.00;60.80;;;;;;5058642;28;20033;-84
2021/08/28 12:34:39;;;;;;;10.13;7.45;;;21.10;60.90;;;;;;5068399;28;20109;-85
2021/08/28 12:37:08;;;;;;;14.60;8.55;;;21.20;60.90;;;;;;5066432;28;20060;-82
2021/08/28 12:39:36;;;;;;;10.68;8.15;;;21.20;60.80;;;;;;5065063;28;20478;-81
2021/08/28 12:42:04;;;;;;;11.63;7.90;;;21.30;60.70;;;;;;5065422;28;20025;-81
2021/08/28 12:44:31;;;;;;;14.80;7.45;;;21.30;60.60;;;;;;5104140;28;20100;-82
2021/08/28 12:47:00;;;;;;;13.57;8.30;;;21.30;60.50;;;;;;5089321;28;20119;-88
2021/08/28 12:49:31;;;;;;;13.18;7.82;;;21.40;60.40;;;;;;5088510;28;20034;-81
2021/08/28 12:52:06;;;;;;;13.48;7.95;;;21.40;60.20;;;;;;5089328;28;20058;-81
2021/08/28 12:54:37;;;;;;;9.95;7.88;;;21.40;59.90;;;;;;5087435;28;20051;-82
2021/08/28 12:57:11;;;;;;;8.27;5.57;;;21.40;59.70;;;;;;5077436;28;20027;-82
2021/08/28 12:59:43;;;;;;;;;;;21.40;59.70;;;;;;5099250;28;20437;-82